createdAt,value
2022-10-10T00:01:37.413Z,81.36
2022-10-10T00:04:06.828Z,81.37
2022-10-10T00:06:34.661Z,81.39
2022-10-10T00:09:06.111Z,81.48
2022-10-10T00:11:35.511Z,81.55
2022-10-10T00:14:04.936Z,81.56
2022-10-10T00:16:33.964Z,81.70
2022-10-10T00:19:01.853Z,81.71
2022-10-10T00:21:31.562Z,81.70
2022-10-10T00:24:01.693Z,81.71
2022-10-10T00:26:30.784Z,81.73
2022-10-10T00:28:58.537Z,81.76
2022-10-10T00:31:27.958Z,81.83
2022-10-10T00:33:58.153Z,81.83
2022-10-10T00:36:25.909Z,81.83
2022-10-10T00:38:53.660Z,81.83
2022-10-10T00:41:22.816Z,81.84
2022-10-10T00:44:12.256Z,81.84
2022-10-10T00:46:41.803Z,81.89
2022-10-10T00:49:24.253Z,81.89
2022-10-10T00:51:57.008Z,82.31
2022-10-10T00:54:29.010Z,82.28
2022-10-10T00:57:09.551Z,82.23
2022-10-10T00:59:42.349Z,82.21
2022-10-10T01:02:10.026Z,82.27
2022-10-10T01:04:45.385Z,82.81
2022-10-10T01:07:24.561Z,83.42
2022-10-10T01:09:56.482Z,83.97
2022-10-10T01:12:42.807Z,84.59
2022-10-10T01:15:16.770Z,85.19
2022-10-10T01:17:48.716Z,85.08
2022-10-10T01:20:39.447Z,84.68
2022-10-10T01:23:38.468Z,84.29
2022-10-10T01:26:24.927Z,83.92
2022-10-10T01:29:23.632Z,83.56
2022-10-10T01:31:56.739Z,83.15
2022-10-10T01:34:44.739Z,83.01
2022-10-10T01:37:25.591Z,82.86
2022-10-10T01:40:30.526Z,82.72
2022-10-10T01:43:09.246Z,83.43
2022-10-10T01:45:37.470Z,84.45
2022-10-10T01:48:07.533Z,85.50
2022-10-10T01:51:00.755Z,86.34
2022-10-10T01:53:40.298Z,87.28
2022-10-10T01:56:07.873Z,87.59
2022-10-10T01:58:57.617Z,87.87
2022-10-10T02:01:36.207Z,88.07
2022-10-10T02:04:12.948Z,88.22
2022-10-10T02:06:56.771Z,88.31
2022-10-10T02:09:33.485Z,88.30
2022-10-10T02:12:04.627Z,88.43
2022-10-10T02:14:57.283Z,88.59
2022-10-10T02:17:27.472Z,88.64
2022-10-10T02:19:59.411Z,88.82
2022-10-10T02:22:29.267Z,88.97
2022-10-10T02:24:57.165Z,89.01
2022-10-10T02:27:47.143Z,89.00
2022-10-10T02:30:19.266Z,88.90
2022-10-10T02:32:48.180Z,88.73
2022-10-10T02:35:25.583Z,88.48
2022-10-10T02:37:55.596Z,88.18
2022-10-10T02:40:31.096Z,87.82
2022-10-10T02:43:04.443Z,87.44
2022-10-10T02:45:34.378Z,87.03
2022-10-10T02:48:03.590Z,86.67
2022-10-10T02:50:33.195Z,86.32
2022-10-10T02:53:00.862Z,86.06
2022-10-10T02:55:28.557Z,85.76
2022-10-10T02:57:56.237Z,85.55
2022-10-10T03:00:23.899Z,85.35
2022-10-10T03:02:51.786Z,85.42
2022-10-10T03:05:21.919Z,85.55
2022-10-10T03:07:51.068Z,86.08
2022-10-10T03:10:18.811Z,86.50
2022-10-10T03:12:46.444Z,86.64
2022-10-10T03:15:14.112Z,86.60
2022-10-10T03:17:42.902Z,86.50
2022-10-10T03:20:11.595Z,86.30
2022-10-10T03:22:39.411Z,86.13
2022-10-10T03:25:07.493Z,85.89
2022-10-10T03:27:35.148Z,85.69
2022-10-10T03:30:06.895Z,85.55
2022-10-10T03:32:34.589Z,85.38
2022-10-10T03:35:02.290Z,85.14
2022-10-10T03:37:29.932Z,84.93
2022-10-10T03:39:57.585Z,84.84
2022-10-10T03:42:26.654Z,84.75
2022-10-10T03:44:54.345Z,84.66
2022-10-10T03:47:21.988Z,84.51
2022-10-10T03:49:51.108Z,84.34
2022-10-10T03:52:18.740Z,84.23
2022-10-10T03:54:46.877Z,84.17
2022-10-10T03:57:16.480Z,84.06
2022-10-10T03:59:44.177Z,83.93
2022-10-10T04:02:11.907Z,83.85
2022-10-10T04:04:39.591Z,83.80
2022-10-10T04:07:07.328Z,83.75
2022-10-10T04:09:35.012Z,83.71
2022-10-10T04:12:06.269Z,83.67
2022-10-10T04:14:33.956Z,83.66
2022-10-10T04:17:03.306Z,83.62
2022-10-10T04:19:32.224Z,83.62
2022-10-10T04:22:00.996Z,83.65
2022-10-10T04:24:28.795Z,83.67
2022-10-10T04:26:56.474Z,83.73
2022-10-10T04:29:24.668Z,83.76
2022-10-10T04:31:55.188Z,83.83
2022-10-10T04:34:22.910Z,83.86
2022-10-10T04:36:50.809Z,83.88
2022-10-10T04:39:20.095Z,83.97
2022-10-10T04:41:50.676Z,84.05
2022-10-10T04:44:18.951Z,84.08
2022-10-10T04:46:46.649Z,84.20
2022-10-10T04:49:14.314Z,84.14
2022-10-10T04:51:41.984Z,84.15
2022-10-10T04:54:11.001Z,84.19
2022-10-10T04:56:40.282Z,84.20
2022-10-10T04:59:10.196Z,84.24
2022-10-10T05:01:37.951Z,84.28
2022-10-10T05:04:06.963Z,84.37
2022-10-10T05:06:34.619Z,84.48
2022-10-10T05:09:02.384Z,84.48
2022-10-10T05:11:30.074Z,84.45
2022-10-10T05:13:59.121Z,84.38
2022-10-10T05:16:26.881Z,84.39
2022-10-10T05:18:54.762Z,84.45
2022-10-10T05:21:22.613Z,84.49
2022-10-10T05:23:50.323Z,84.48
2022-10-10T05:26:21.147Z,84.45
2022-10-10T05:28:49.225Z,84.36
2022-10-10T05:31:17.047Z,84.35
2022-10-10T05:33:44.700Z,84.37
2022-10-10T05:36:14.056Z,84.38
2022-10-10T05:38:42.974Z,84.33
2022-10-10T05:41:10.700Z,84.27
2022-10-10T05:43:38.769Z,84.20
2022-10-10T05:46:06.521Z,84.20
2022-10-10T05:48:34.313Z,84.22
2022-10-10T05:51:02.017Z,84.21
2022-10-10T05:53:31.266Z,84.24
2022-10-10T05:56:02.180Z,84.30
2022-10-10T05:58:31.778Z,84.31
2022-10-10T06:01:05.779Z,84.32
2022-10-10T06:03:35.701Z,84.32
2022-10-10T06:06:04.734Z,84.36
2022-10-10T06:08:32.522Z,84.41
2022-10-10T06:11:08.458Z,84.47
2022-10-10T06:13:38.757Z,84.51
2022-10-10T06:16:07.983Z,84.55
2022-10-10T06:18:37.075Z,84.60
2022-10-10T06:21:08.674Z,84.63
2022-10-10T06:23:37.510Z,84.74
2022-10-10T06:26:05.312Z,84.78
2022-10-10T06:28:35.890Z,84.85
2022-10-10T06:31:08.487Z,84.91
2022-10-10T06:33:37.817Z,84.99
2022-10-10T06:36:07.822Z,85.11
2022-10-10T06:38:41.116Z,85.20
2022-10-10T06:41:10.483Z,85.28
2022-10-10T06:43:39.459Z,85.34
2022-10-10T06:46:08.036Z,85.45
2022-10-10T06:48:36.690Z,85.48
2022-10-10T06:51:09.374Z,85.47
2022-10-10T06:53:37.091Z,85.51
2022-10-10T06:56:07.151Z,85.56
2022-10-10T06:58:35.455Z,85.59
2022-10-10T07:01:05.897Z,85.61
2022-10-10T07:03:33.561Z,85.59
2022-10-10T07:06:03.571Z,85.65
2022-10-10T07:08:32.606Z,85.72
2022-10-10T07:11:00.312Z,85.74
2022-10-10T07:13:29.131Z,85.74
2022-10-10T07:15:57.101Z,85.78
2022-10-10T07:18:25.236Z,85.76
2022-10-10T07:20:57.577Z,85.72
2022-10-10T07:23:28.403Z,85.72
2022-10-10T07:26:04.201Z,85.67
2022-10-10T07:28:32.922Z,85.74
2022-10-10T07:31:08.091Z,85.67
2022-10-10T07:33:40.030Z,85.69
2022-10-10T07:36:09.047Z,85.77
2022-10-10T07:38:38.538Z,85.68
2022-10-10T07:41:10.195Z,85.52
2022-10-10T07:43:38.951Z,85.50
2022-10-10T07:46:12.957Z,85.41
2022-10-10T07:48:40.792Z,85.33
2022-10-10T07:51:10.073Z,85.21
2022-10-10T07:53:39.236Z,85.16
2022-10-10T07:56:10.479Z,85.09
2022-10-10T07:58:39.646Z,84.97
2022-10-10T08:01:11.788Z,85.23
2022-10-10T08:03:40.544Z,85.52
2022-10-10T08:06:13.021Z,85.42
2022-10-10T08:08:50.306Z,84.82
2022-10-10T08:11:21.389Z,84.64
2022-10-10T08:13:51.150Z,84.50
2022-10-10T08:16:20.465Z,84.29
2022-10-10T08:18:49.721Z,84.20
2022-10-10T08:21:18.342Z,84.14
2022-10-10T08:23:47.382Z,83.92
2022-10-10T08:26:18.497Z,83.79
2022-10-10T08:28:49.445Z,83.55
2022-10-10T08:31:21.412Z,83.46
2022-10-10T08:33:51.427Z,83.26
2022-10-10T08:36:24.522Z,83.30
2022-10-10T08:39:02.631Z,82.81
2022-10-10T08:41:47.459Z,82.25
2022-10-10T08:44:43.197Z,77.96
2022-10-10T08:47:18.597Z,77.10
2022-10-10T08:49:52.493Z,75.03
2022-10-10T08:52:30.979Z,71.33
2022-10-10T08:55:03.695Z,70.73
2022-10-10T08:58:02.335Z,70.53
2022-10-10T09:00:36.762Z,67.98
2022-10-10T09:03:32.966Z,62.55
2022-10-10T09:06:39.016Z,63.29
2022-10-10T09:09:48.830Z,57.41
2022-10-10T09:12:39.890Z,54.55
2022-10-10T09:15:29.454Z,49.01
2022-10-10T09:18:09.923Z,45.13
2022-10-10T09:21:23.075Z,38.88
2022-10-10T09:24:04.649Z,34.14
2022-10-10T09:26:40.485Z,33.17
2022-10-10T09:29:33.273Z,33.92
2022-10-10T09:32:09.580Z,34.23
2022-10-10T09:34:49.455Z,36.44
2022-10-10T09:37:46.876Z,37.55
2022-10-10T09:40:34.614Z,39.42
2022-10-10T09:43:18.682Z,39.42
2022-10-10T09:45:53.630Z,40.48
2022-10-10T09:48:28.869Z,41.94
2022-10-10T09:50:57.936Z,42.91
2022-10-10T09:53:27.785Z,43.52
2022-10-10T09:55:55.751Z,44.11
2022-10-10T09:58:44.861Z,42.69
2022-10-10T10:01:18.910Z,43.40
2022-10-10T10:04:17.194Z,43.70
2022-10-10T10:07:18.577Z,42.55
2022-10-10T10:09:53.048Z,43.86
2022-10-10T10:12:27.004Z,43.69
2022-10-10T10:15:03.538Z,44.27
2022-10-10T10:17:31.662Z,43.51
2022-10-10T10:19:59.446Z,42.43
2022-10-10T10:22:33.127Z,43.13
2022-10-10T10:25:32.766Z,44.38
2022-10-10T10:28:21.779Z,45.30
2022-10-10T10:30:55.068Z,45.43
2022-10-10T10:33:38.439Z,45.54
2022-10-10T10:36:41.642Z,42.24
2022-10-10T10:39:38.945Z,41.51
2022-10-10T10:42:21.970Z,43.35
2022-10-10T10:45:13.562Z,43.04
2022-10-10T10:47:58.743Z,44.01
2022-10-10T10:50:38.419Z,43.14
2022-10-10T10:53:34.549Z,43.75
2022-10-10T10:56:13.529Z,43.90
2022-10-10T11:02:11.588Z,43.15
2022-10-10T11:05:36.581Z,42.43
2022-10-10T11:08:21.156Z,42.05
2022-10-10T11:11:18.386Z,43.20
2022-10-10T11:14:02.088Z,43.48
2022-10-10T11:16:51.986Z,42.84
2022-10-10T11:19:25.791Z,43.52
2022-10-10T11:22:07.482Z,41.04
2022-10-10T11:25:00.778Z,41.58
2022-10-10T11:27:43.195Z,42.83
2022-10-10T11:30:26.655Z,40.80
2022-10-10T11:33:21.068Z,42.17
2022-10-10T11:35:58.818Z,42.14
2022-10-10T11:39:03.419Z,42.36
2022-10-10T11:41:44.405Z,42.33
2022-10-10T11:44:18.188Z,42.51
2022-10-10T11:46:56.251Z,42.30
2022-10-10T11:49:44.763Z,40.84
2022-10-10T11:52:32.914Z,41.23
2022-10-10T11:55:27.463Z,42.51
2022-10-10T11:58:28.318Z,42.35
2022-10-10T12:01:13.505Z,42.29
2022-10-10T12:03:41.192Z,41.83
2022-10-10T12:06:35.246Z,41.31
2022-10-10T12:09:08.629Z,41.78
2022-10-10T12:11:59.942Z,41.19
2022-10-10T12:14:31.594Z,40.48
2022-10-10T12:17:01.179Z,41.06
2022-10-10T12:19:29.619Z,41.29
2022-10-10T12:22:30.822Z,41.20
2022-10-10T12:25:10.519Z,39.68
2022-10-10T12:28:05.789Z,40.68
2022-10-10T12:30:33.614Z,41.03
2022-10-10T12:33:01.323Z,41.12
2022-10-10T12:35:36.797Z,40.06
2022-10-10T12:38:13.558Z,40.94
2022-10-10T12:41:07.110Z,41.06
2022-10-10T12:43:40.359Z,41.01
2022-10-10T12:46:16.033Z,40.61
2022-10-10T12:48:45.774Z,39.22
2022-10-10T12:51:23.362Z,40.10
2022-10-10T12:53:58.205Z,39.52
2022-10-10T12:56:44.731Z,39.66
2022-10-10T12:59:21.353Z,39.42
2022-10-10T13:02:02.728Z,39.81
2022-10-10T13:04:32.049Z,40.38
2022-10-10T13:07:04.482Z,41.02
2022-10-10T13:09:35.940Z,41.28
2022-10-10T13:12:07.091Z,41.77
2022-10-10T13:14:41.420Z,41.57
2022-10-10T13:17:33.512Z,41.06
2022-10-10T13:20:02.754Z,41.58
2022-10-10T13:22:34.009Z,41.39
2022-10-10T13:25:05.436Z,41.79
2022-10-10T13:27:35.458Z,41.66
2022-10-10T13:30:08.180Z,41.40
2022-10-10T13:32:37.545Z,41.48
2022-10-10T13:35:15.086Z,40.59
2022-10-10T13:37:46.200Z,41.00
2022-10-10T13:40:16.650Z,41.56
2022-10-10T13:42:48.554Z,41.83
2022-10-10T13:45:29.266Z,41.30
2022-10-10T13:48:02.191Z,41.81
2022-10-10T13:50:44.383Z,41.90
2022-10-10T13:53:27.474Z,42.07
2022-10-10T13:56:11.827Z,41.65
2022-10-10T13:58:56.216Z,42.00
2022-10-10T14:01:35.833Z,42.54
2022-10-10T14:04:15.611Z,43.19
2022-10-10T14:06:55.365Z,43.44
2022-10-10T14:09:34.203Z,43.83
2022-10-10T14:12:04.938Z,43.91
2022-10-10T14:14:43.119Z,44.33
2022-10-10T14:17:12.144Z,44.22
2022-10-10T14:19:39.900Z,44.43
2022-10-10T14:22:08.862Z,44.55
2022-10-10T14:24:36.664Z,44.54
2022-10-10T14:27:19.780Z,44.49
2022-10-10T14:29:48.068Z,44.50
2022-10-10T14:32:17.585Z,44.42
2022-10-10T14:34:46.648Z,44.41
2022-10-10T14:37:24.971Z,43.88
2022-10-10T14:39:54.323Z,44.17
2022-10-10T14:42:23.812Z,44.44
2022-10-10T14:44:52.238Z,44.89
2022-10-10T14:47:24.629Z,45.16
2022-10-10T14:49:58.120Z,45.35
2022-10-10T14:52:25.792Z,45.71
2022-10-10T14:54:53.449Z,45.92
2022-10-10T14:57:23.449Z,46.24
2022-10-10T14:59:51.228Z,46.66
2022-10-10T15:02:22.774Z,46.94
2022-10-10T15:04:52.457Z,47.09
2022-10-10T15:07:20.323Z,47.25
2022-10-10T15:10:31.728Z,47.61
2022-10-10T15:12:42.850Z,48.16
2022-10-10T15:15:13.553Z,48.40
2022-10-10T15:17:42.651Z,48.42
2022-10-10T15:20:13.187Z,48.85
2022-10-10T15:22:42.330Z,49.09
2022-10-10T15:25:11.447Z,49.58
2022-10-10T15:27:39.265Z,49.77
2022-10-10T15:30:08.549Z,50.08
2022-10-10T15:32:41.313Z,50.48
2022-10-10T15:35:19.627Z,51.03
2022-10-10T15:37:48.885Z,51.22
2022-10-10T15:40:21.107Z,51.36
2022-10-10T15:42:50.970Z,51.88
2022-10-10T15:45:43.543Z,52.09
2022-10-10T15:48:07.901Z,52.31
2022-10-10T15:50:42.753Z,52.48
2022-10-10T15:53:14.447Z,52.62
2022-10-10T15:55:47.167Z,53.12
2022-10-10T15:58:17.377Z,53.69
2022-10-10T16:00:47.046Z,54.07
2022-10-10T16:03:19.537Z,54.04
2022-10-10T16:05:47.211Z,54.46
2022-10-10T16:08:18.887Z,54.39
2022-10-10T16:10:46.554Z,55.21
2022-10-10T16:13:17.035Z,55.11
2022-10-10T16:15:44.766Z,55.42
2022-10-10T16:18:12.405Z,55.55
2022-10-10T16:20:40.052Z,55.70
2022-10-10T16:23:10.226Z,56.16
2022-10-10T16:25:37.853Z,56.16
2022-10-10T16:28:05.631Z,56.47
2022-10-10T16:30:34.639Z,56.80
2022-10-10T16:33:02.355Z,56.96
2022-10-10T16:35:30.133Z,57.47
2022-10-10T16:38:01.075Z,57.80
2022-10-10T16:40:30.052Z,57.78
2022-10-10T16:42:57.734Z,57.90
2022-10-10T16:45:26.490Z,58.77
2022-10-10T16:47:54.338Z,59.01
2022-10-10T16:50:22.076Z,58.75
2022-10-10T16:52:49.853Z,58.98
2022-10-10T16:55:17.603Z,59.28
2022-10-10T16:57:45.275Z,59.18
2022-10-10T17:00:13.178Z,59.48
2022-10-10T17:02:43.014Z,59.84
2022-10-10T17:05:10.763Z,59.94
2022-10-10T17:07:39.759Z,60.28
2022-10-10T17:10:08.065Z,60.66
2022-10-10T17:12:35.726Z,60.32
2022-10-10T17:15:04.985Z,61.04
2022-10-10T17:17:35.943Z,61.68
2022-10-10T17:20:07.218Z,62.17
2022-10-10T17:22:36.383Z,62.39
2022-10-10T17:25:04.586Z,62.60
2022-10-10T17:27:35.180Z,62.44
2022-10-10T17:30:06.090Z,62.42
2022-10-10T17:32:33.744Z,62.44
2022-10-10T17:35:02.522Z,62.63
2022-10-10T17:37:30.259Z,62.76
2022-10-10T17:39:57.922Z,62.76
2022-10-10T17:42:26.665Z,63.36
2022-10-10T17:44:57.817Z,63.64
2022-10-10T17:47:28.408Z,63.80
2022-10-10T17:49:56.070Z,63.70
2022-10-10T17:52:24.978Z,63.38
2022-10-10T17:54:54.821Z,63.76
2022-10-10T17:57:22.990Z,63.75
2022-10-10T17:59:51.237Z,64.39
2022-10-10T18:02:19.703Z,64.61
2022-10-10T18:04:47.382Z,64.67
2022-10-10T18:07:19.292Z,64.87
2022-10-10T18:09:51.741Z,65.01
2022-10-10T18:12:20.207Z,65.26
2022-10-10T18:14:47.921Z,65.46
2022-10-10T18:17:15.652Z,65.53
2022-10-10T18:19:43.455Z,65.76
2022-10-10T18:22:11.152Z,65.94
2022-10-10T18:24:38.978Z,65.96
2022-10-10T18:27:06.696Z,65.90
2022-10-10T18:29:34.660Z,65.99
2022-10-10T18:32:02.442Z,66.12
2022-10-10T18:34:30.506Z,66.32
2022-10-10T18:36:58.204Z,66.23
2022-10-10T18:39:32.189Z,66.77
2022-10-10T18:42:00.964Z,67.10
2022-10-10T18:44:29.147Z,67.20
2022-10-10T18:46:56.802Z,67.47
2022-10-10T18:49:26.004Z,67.60
2022-10-10T18:51:53.986Z,67.72
2022-10-10T18:54:21.657Z,67.98
2022-10-10T18:56:51.205Z,68.18
2022-10-10T18:59:24.459Z,68.35
2022-10-10T19:01:53.876Z,68.07
2022-10-10T19:04:22.839Z,67.82
2022-10-10T19:06:56.813Z,68.66
2022-10-10T19:09:26.914Z,68.89
2022-10-10T19:11:56.101Z,68.93
2022-10-10T19:14:23.831Z,69.26
2022-10-10T19:16:51.876Z,69.94
2022-10-10T19:19:21.029Z,69.85
2022-10-10T19:21:51.534Z,69.58
2022-10-10T19:24:23.074Z,69.80
2022-10-10T19:26:56.810Z,70.63
2022-10-10T19:29:26.502Z,71.06
2022-10-10T19:31:56.912Z,71.29
2022-10-10T19:34:24.746Z,71.32
2022-10-10T19:36:55.080Z,70.98
2022-10-10T19:39:22.864Z,70.85
2022-10-10T19:41:50.700Z,70.79
2022-10-10T19:44:18.356Z,70.73
2022-10-10T19:46:46.049Z,71.16
2022-10-10T19:49:13.712Z,71.75
2022-10-10T19:51:41.488Z,72.02
2022-10-10T19:54:09.345Z,72.14
2022-10-10T19:56:37.050Z,72.72
2022-10-10T19:59:06.590Z,73.23
2022-10-10T20:01:34.605Z,73.45
2022-10-10T20:04:02.380Z,73.72
2022-10-10T20:06:31.362Z,73.92
2022-10-10T20:09:00.224Z,74.45
2022-10-10T20:11:28.058Z,74.62
2022-10-10T20:13:59.116Z,74.67
2022-10-10T20:16:27.520Z,74.35
2022-10-10T20:18:58.737Z,74.40
2022-10-10T20:21:32.584Z,74.46
2022-10-10T20:24:06.145Z,74.59
2022-10-10T20:26:35.763Z,74.45
2022-10-10T20:29:04.932Z,74.87
2022-10-10T20:31:36.662Z,74.99
2022-10-10T20:34:06.506Z,75.04
2022-10-10T20:36:36.119Z,75.07
2022-10-10T20:39:08.645Z,75.00
2022-10-10T20:41:39.402Z,75.23
2022-10-10T20:44:10.223Z,75.01
2022-10-10T20:46:40.685Z,75.15
2022-10-10T20:49:18.272Z,75.18
2022-10-10T20:51:52.831Z,75.19
2022-10-10T20:54:24.066Z,75.12
2022-10-10T20:56:53.113Z,75.19
2022-10-10T20:59:24.457Z,75.24
2022-10-10T21:01:52.158Z,75.34
2022-10-10T21:04:20.672Z,75.35
2022-10-10T21:06:48.433Z,75.44
2022-10-10T21:09:16.117Z,75.45
2022-10-10T21:11:48.687Z,75.57
2022-10-10T21:14:19.900Z,75.67
2022-10-10T21:16:51.344Z,75.72
2022-10-10T21:19:19.079Z,75.95
2022-10-10T21:21:46.854Z,76.12
2022-10-10T21:24:16.076Z,76.19
2022-10-10T21:26:46.485Z,76.38
2022-10-10T21:29:14.143Z,76.44
2022-10-10T21:31:44.081Z,76.49
2022-10-10T21:34:16.561Z,76.54
2022-10-10T21:36:46.289Z,76.76
2022-10-10T21:39:15.931Z,76.87
2022-10-10T21:41:43.620Z,77.02
2022-10-10T21:44:12.423Z,77.13
2022-10-10T21:46:40.087Z,77.26
2022-10-10T21:49:12.208Z,77.40
2022-10-10T21:51:45.491Z,77.59
2022-10-10T21:54:15.004Z,77.77
2022-10-10T21:56:42.676Z,78.00
2022-10-10T21:59:11.874Z,78.09
2022-10-10T22:01:39.661Z,78.21
2022-10-10T22:04:10.696Z,78.28
2022-10-10T22:06:39.100Z,78.43
2022-10-10T22:09:06.935Z,78.42
2022-10-10T22:11:35.860Z,78.57
2022-10-10T22:14:05.152Z,78.63
2022-10-10T22:16:34.565Z,78.74
2022-10-10T22:19:05.459Z,78.82
2022-10-10T22:21:35.145Z,78.95
2022-10-10T22:24:07.988Z,79.09
2022-10-10T22:26:36.961Z,79.22
2022-10-10T22:29:06.015Z,79.27
2022-10-10T22:31:38.148Z,79.55
2022-10-10T22:34:07.677Z,79.73
2022-10-10T22:36:36.816Z,79.96
2022-10-10T22:39:08.247Z,80.10
2022-10-10T22:41:35.898Z,80.20
2022-10-10T22:44:05.090Z,80.33
2022-10-10T22:46:34.177Z,80.39
2022-10-10T22:49:03.389Z,80.38
2022-10-10T22:51:31.114Z,80.55
2022-10-10T22:53:58.832Z,80.65
2022-10-10T22:56:26.744Z,80.75
2022-10-10T22:58:55.119Z,80.74
2022-10-10T23:01:25.939Z,80.85
2022-10-10T23:04:00.347Z,80.97
2022-10-10T23:06:32.747Z,80.69
2022-10-10T23:09:00.592Z,80.95
2022-10-10T23:11:29.432Z,81.09
2022-10-10T23:13:58.640Z,80.96
2022-10-10T23:16:26.616Z,81.04
2022-10-10T23:18:54.234Z,80.91
2022-10-10T23:21:23.422Z,81.34
2022-10-10T23:23:52.393Z,81.07
2022-10-10T23:26:20.193Z,80.93
2022-10-10T23:28:50.834Z,80.66
2022-10-10T23:31:18.514Z,80.28
2022-10-10T23:33:46.194Z,80.03
2022-10-10T23:36:15.309Z,79.95
2022-10-10T23:38:45.629Z,79.84
2022-10-10T23:41:14.154Z,79.77
2022-10-10T23:43:41.888Z,79.99
2022-10-10T23:46:11.039Z,80.08
2022-10-10T23:48:38.914Z,80.11
2022-10-10T23:51:06.738Z,80.13
2022-10-10T23:53:35.903Z,80.08
2022-10-10T23:56:05.554Z,80.01
2022-10-10T23:58:35.630Z,79.89
